M I D A S
Marine Information and Data Acquisition System
Tripno 1668 of the Zeeleeuw from 2009-04-02 06:09:01 to 2009-04-02 15:49:45
Back to CruiseResearch ActivitiesStationsMapUnderway DataData graphs

EquipmentUnitsComment
TimeDGPSUTC
LatitudeDGPSDM.mWGS84
LongitudeDGPSDM.mWGS84
HeadingGyrodeg 
SOGDGPSknotsSpeed over ground
COGDGPSdegCourse over ground
DepthEcho soundermeters200 kHz
Missing or incorrect values are displayed as -999
Navigation data collected by the RV Zeeleeuw from 2009-04-02 05:58:47 to 2009-04-02 15:58:06
                                                                                    Next 1000 lines
Time Latitude Longitude Heading SOG COG Depth
2009-04-02 05:58:56 51°13.663 2°55.959 125.1 -999 309 7.9
2009-04-02 05:59:02 51°13.663 2°55.959 125.1 0.1 29 7.9
2009-04-02 05:59:07 51°13.663 2°55.959 125.2 0.1 215 7.9
2009-04-02 05:59:12 51°13.663 2°55.959 125.3 -999 34 8
2009-04-02 05:59:17 51°13.663 2°55.959 125.3 -999 299 7.9
2009-04-02 05:59:22 51°13.663 2°55.959 125.3 -999 253 8
2009-04-02 05:59:27 51°13.664 2°55.959 125.3 -999 143 7.9
2009-04-02 05:59:32 51°13.663 2°55.959 125.2 -999 77 7.9
2009-04-02 05:59:36 51°13.662 2°55.959 125.2 -999 249 8
2009-04-02 05:59:42 51°13.663 2°55.959 125.1 -999 296 7.9
2009-04-02 05:59:47 51°13.663 2°55.959 125.1 -999 268 8
2009-04-02 05:59:52 51°13.663 2°55.959 125 -999 43 7.9
2009-04-02 05:59:56 51°13.663 2°55.959 125 -999 213 7.9
2009-04-02 06:00:02 51°13.663 2°55.959 125.1 -999 219 7.9
2009-04-02 06:00:07 51°13.663 2°55.959 125.3 -999 243 8
2009-04-02 06:00:12 51°13.663 2°55.959 125.5 -999 351 7.9
2009-04-02 06:00:16 51°13.663 2°55.959 125.6 -999 4 7.9
2009-04-02 06:00:22 51°13.663 2°55.959 125.6 -999 43 7.9
2009-04-02 06:00:27 51°13.663 2°55.959 125.7 -999 355 7.9
2009-04-02 06:00:32 51°13.662 2°55.959 125.7 -999 35 7.9
2009-04-02 06:00:37 51°13.662 2°55.959 125.7 -999 10 7.9
2009-04-02 06:00:42 51°13.662 2°55.959 125.5 -999 299 7.9
2009-04-02 06:00:47 51°13.662 2°55.959 125.3 -999 33 7.9
2009-04-02 06:00:52 51°13.662 2°55.959 125.2 -999 321 7.9
2009-04-02 06:00:56 51°13.663 2°55.959 125.1 -999 33 7.9
2009-04-02 06:01:01 51°13.663 2°55.959 125.1 -999 95 7.9
2009-04-02 06:01:07 51°13.663 2°55.959 125.1 -999 199 7.9
2009-04-02 06:01:12 51°13.663 2°55.959 125.1 -999 338 7.9
2009-04-02 06:01:17 51°13.663 2°55.959 125.3 -999 296 7.9
2009-04-02 06:01:22 51°13.663 2°55.959 125.3 -999 259 7.9
2009-04-02 06:01:27 51°13.664 2°55.959 125.5 -999 9 7.9
2009-04-02 06:01:32 51°13.665 2°55.959 125.5 -999 10 7.9
2009-04-02 06:01:37 51°13.665 2°55.959 125.5 -999 333 7.9
2009-04-02 06:01:42 51°13.665 2°55.959 125.5 -999 325 7.9
2009-04-02 06:01:47 51°13.665 2°55.959 125.5 0.1 12 7.9
2009-04-02 06:01:52 51°13.665 2°55.959 125.4 -999 28 7.9
2009-04-02 06:01:57 51°13.665 2°55.959 125.3 -999 331 7.9
2009-04-02 06:02:02 51°13.663 2°55.959 125.2 -999 266 7.9
2009-04-02 06:02:07 51°13.663 2°55.959 125.2 -999 339 7.9
2009-04-02 06:02:12 51°13.663 2°55.959 125.2 -999 220 7.9
2009-04-02 06:02:17 51°13.662 2°55.959 125.2 0.1 139 7.9
2009-04-02 06:02:22 51°13.662 2°55.959 125.2 0.1 159 7.9
2009-04-02 06:02:27 51°13.662 2°55.959 125.3 0.1 155 7.9
2009-04-02 06:02:32 51°13.662 2°55.959 125.7 0.1 166 7.9
2009-04-02 06:02:37 51°13.662 2°55.959 126.3 0.1 125 7.9
2009-04-02 06:02:42 51°13.662 2°55.959 126.7 -999 120 7.9
2009-04-02 06:02:47 51°13.662 2°55.959 127.1 0.1 355 7.9
2009-04-02 06:02:52 51°13.662 2°55.959 127.1 -999 323 7.9
2009-04-02 06:02:57 51°13.662 2°55.959 127 -999 189 7.9
2009-04-02 06:03:02 51°13.662 2°55.959 127 -999 60 7.9
2009-04-02 06:03:06 51°13.662 2°55.959 127.1 -999 230 7.9
2009-04-02 06:03:12 51°13.662 2°55.959 127.1 -999 73 7.9
2009-04-02 06:03:17 51°13.662 2°55.959 127.1 -999 335 7.9
2009-04-02 06:03:22 51°13.662 2°55.959 127.3 -999 80 7.9
2009-04-02 06:03:26 51°13.662 2°55.959 127.5 -999 311 7.9
2009-04-02 06:03:32 51°13.662 2°55.959 127.6 -999 66 7.9
2009-04-02 06:03:37 51°13.662 2°55.959 127.8 -999 223 7.9
2009-04-02 06:03:42 51°13.662 2°55.959 127.9 -999 228 7.9
2009-04-02 06:03:46 51°13.662 2°55.959 128.1 -999 88 7.9
2009-04-02 06:03:52 51°13.662 2°55.959 128.1 -999 42 7.9
2009-04-02 06:03:57 51°13.662 2°55.959 128 -999 55 7.9
2009-04-02 06:04:02 51°13.662 2°55.959 127.9 -999 199 7.9
2009-04-02 06:04:07 51°13.662 2°55.959 127.9 -999 358 7.9
2009-04-02 06:04:12 51°13.662 2°55.959 127.9 -999 131 7.9
2009-04-02 06:04:17 51°13.662 2°55.959 127.9 -999 131 7.9
2009-04-02 06:04:21 51°13.662 2°55.959 127.9 -999 142 7.9
2009-04-02 06:04:27 51°13.662 2°55.959 127.9 -999 269 7.9
2009-04-02 06:04:32 51°13.662 2°55.959 127.9 -999 299 7.9
2009-04-02 06:04:37 51°13.662 2°55.959 128.2 0.1 237 7.9
2009-04-02 06:04:42 51°13.662 2°55.959 128.5 -999 238 7.9
2009-04-02 06:04:47 51°13.662 2°55.959 128.7 0.1 259 7.9
2009-04-02 06:04:52 51°13.662 2°55.958 128.9 0.1 291 7.9
2009-04-02 06:04:57 51°13.662 2°55.959 129.1 -999 211 7.9
2009-04-02 06:05:02 51°13.662 2°55.959 129.3 -999 209 7.9
2009-04-02 06:05:07 51°13.662 2°55.959 129.4 -999 262 7.9
2009-04-02 06:05:12 51°13.662 2°55.959 129.5 -999 31 7.9
2009-04-02 06:05:17 51°13.662 2°55.959 129.5 -999 161 7.9
2009-04-02 06:05:22 51°13.663 2°55.959 129.5 0.1 354 7.9
2009-04-02 06:05:27 51°13.663 2°55.96 129.5 -999 167 7.9
2009-04-02 06:05:32 51°13.663 2°55.96 129.5 -999 263 7.9
2009-04-02 06:05:37 51°13.663 2°55.96 129.4 0.1 354 7.8
2009-04-02 06:05:42 51°13.663 2°55.96 129.3 -999 143 7.9
2009-04-02 06:05:47 51°13.663 2°55.96 129.3 -999 95 7.9
2009-04-02 06:05:52 51°13.663 2°55.96 129.2 -999 339 7.9
2009-04-02 06:05:57 51°13.663 2°55.96 129 -999 93 7.9
2009-04-02 06:06:01 51°13.663 2°55.96 129 -999 69 7.9
2009-04-02 06:06:07 51°13.663 2°55.96 128.7 0.1 45 7.9
2009-04-02 06:06:12 51°13.663 2°55.96 128.2 0.1 89 7.9
2009-04-02 06:06:17 51°13.663 2°55.96 127 -999 228 7.9
2009-04-02 06:06:22 51°13.663 2°55.96 125.9 -999 75 7.9
2009-04-02 06:06:27 51°13.662 2°55.96 124.9 -999 93 7.9
2009-04-02 06:06:32 51°13.662 2°55.96 124.1 -999 233 7.9
2009-04-02 06:06:37 51°13.662 2°55.959 123 0.1 182 7.9
2009-04-02 06:06:42 51°13.662 2°55.959 122.3 0.1 190 7.9
2009-04-02 06:06:47 51°13.662 2°55.96 121.3 0.1 220 7.9
2009-04-02 06:06:52 51°13.662 2°55.959 120.5 0.1 206 7.9
2009-04-02 06:06:57 51°13.662 2°55.959 119.6 0.1 183 7.9
2009-04-02 06:07:02 51°13.662 2°55.959 118.6 0.1 200 7.9
2009-04-02 06:07:07 51°13.662 2°55.959 117.7 0.1 219 7.9
2009-04-02 06:07:12 51°13.662 2°55.959 116.9 -999 230 7.9
2009-04-02 06:07:17 51°13.662 2°55.959 115.7 0.1 214 7.9
2009-04-02 06:07:22 51°13.662 2°55.959 115 0.1 199 7.8
2009-04-02 06:07:27 51°13.662 2°55.959 114 0.1 189 7.9
2009-04-02 06:07:32 51°13.661 2°55.959 113.2 0.1 242 7.9
2009-04-02 06:07:37 51°13.661 2°55.958 112.3 0.3 270 7.9
2009-04-02 06:07:42 51°13.661 2°55.957 111.6 0.6 290 7.9
2009-04-02 06:07:47 51°13.662 2°55.955 111.2 0.9 288 7.9
2009-04-02 06:07:52 51°13.663 2°55.952 111.1 1.6 291 8.1
2009-04-02 06:07:57 51°13.664 2°55.948 111.1 1.9 289 8
2009-04-02 06:08:02 51°13.665 2°55.943 111.8 2.2 290 8.3
2009-04-02 06:08:08 51°13.667 2°55.937 112.6 2.5 291 -999
2009-04-02 06:08:13 51°13.668 2°55.931 113.2 2.8 292 -999
2009-04-02 06:08:19 51°13.67 2°55.924 113.3 3 292 -999
2009-04-02 06:08:26 51°13.673 2°55.915 113.3 3.2 293 -999
2009-04-02 06:08:31 51°13.674 2°55.908 112.7 3.3 291 -999
2009-04-02 06:08:36 51°13.676 2°55.901 111.9 3.4 292 -999
2009-04-02 06:08:41 51°13.677 2°55.894 111.6 3.5 290 -999
2009-04-02 06:08:46 51°13.679 2°55.886 111.6 3.6 291 -999
2009-04-02 06:08:50 51°13.681 2°55.88 111.9 3.7 291 -999
2009-04-02 06:08:56 51°13.683 2°55.871 112.5 3.7 292 -999
2009-04-02 06:09:01 51°13.686 2°55.863 112.8 3.8 294 -999
2009-04-02 06:09:06 51°13.688 2°55.856 112.8 3.8 294 -999
2009-04-02 06:09:10 51°13.689 2°55.85 112.8 3.5 292 -999
2009-04-02 06:09:15 51°13.691 2°55.843 112.9 3.3 292 -999
2009-04-02 06:09:21 51°13.692 2°55.836 113.7 3.2 292 -999
2009-04-02 06:09:26 51°13.694 2°55.829 114.9 3.1 293 -999
2009-04-02 06:09:30 51°13.695 2°55.825 116 3 294 10.8
2009-04-02 06:09:35 51°13.697 2°55.819 117.2 2.9 295 10.9
2009-04-02 06:09:40 51°13.698 2°55.813 118.5 2.9 296 11.1
2009-04-02 06:09:45 51°13.7 2°55.807 119.8 2.9 297 11.3
2009-04-02 06:09:50 51°13.702 2°55.802 121.4 2.9 299 12.7
2009-04-02 06:09:54 51°13.704 2°55.797 123 2.8 299 12.6
2009-04-02 06:09:59 51°13.706 2°55.792 124.5 2.9 300 4.5
2009-04-02 06:10:04 51°13.708 2°55.786 126.1 2.9 301 13.4
2009-04-02 06:10:10 51°13.71 2°55.78 128 2.8 302 4.6
2009-04-02 06:10:15 51°13.712 2°55.775 129.7 2.8 302 -999
2009-04-02 06:10:20 51°13.714 2°55.769 132 2.9 305 -999
2009-04-02 06:10:26 51°13.717 2°55.763 134.7 3.1 309 -999
2009-04-02 06:10:30 51°13.72 2°55.759 137.3 3.2 310 4.6
2009-04-02 06:10:35 51°13.723 2°55.753 139.1 3.2 312 -999
2009-04-02 06:10:41 51°13.727 2°55.747 141.3 3.4 316 -999
2009-04-02 06:10:46 51°13.731 2°55.742 143.1 3.7 318 -999
2009-04-02 06:10:51 51°13.734 2°55.737 145.3 3.6 321 -999
2009-04-02 06:10:56 51°13.738 2°55.732 147.2 3.4 321 -999
2009-04-02 06:11:01 51°13.741 2°55.728 148.6 2.8 323 -999
2009-04-02 06:11:06 51°13.743 2°55.726 150.6 1.8 321 -999
2009-04-02 06:11:10 51°13.743 2°55.725 153.6 0.3 305 -999
2009-04-02 06:11:16 51°13.742 2°55.725 156.1 0.9 188 -999
2009-04-02 06:11:21 51°13.741 2°55.725 155.4 0.7 168 -999
2009-04-02 06:11:26 51°13.74 2°55.725 151.4 0.3 187 4.5
2009-04-02 06:11:30 51°13.74 2°55.725 148.9 0.4 238 13.5
2009-04-02 06:11:35 51°13.741 2°55.724 148.5 0.6 300 -999
2009-04-02 06:11:41 51°13.742 2°55.721 147.4 1.1 309 -999
2009-04-02 06:11:46 51°13.744 2°55.719 147.3 1.7 318 -999
2009-04-02 06:11:50 51°13.746 2°55.717 147.4 2.1 322 13.5
2009-04-02 06:11:55 51°13.748 2°55.713 147.9 2.3 323 13.6
2009-04-02 06:12:01 51°13.752 2°55.71 149.3 2.5 327 -999
2009-04-02 06:12:06 51°13.755 2°55.706 151.1 2.7 326 -999
2009-04-02 06:12:10 51°13.757 2°55.704 152.3 2.9 331 -999
2009-04-02 06:12:15 51°13.761 2°55.7 152.7 3.2 328 -999
2009-04-02 06:12:21 51°13.766 2°55.696 153.5 3.4 334 -999
2009-04-02 06:12:26 51°13.77 2°55.692 154.2 3.6 329 -999
2009-04-02 06:12:31 51°13.775 2°55.688 154.5 3.8 333 -999
2009-04-02 06:12:35 51°13.779 2°55.685 154.5 3.8 331 -999
2009-04-02 06:12:41 51°13.784 2°55.68 154.9 3.9 333 -999
2009-04-02 06:12:46 51°13.789 2°55.676 155.5 4 332 -999
2009-04-02 06:12:51 51°13.794 2°55.672 156.5 4.1 335 -999
2009-04-02 06:12:56 51°13.8 2°55.668 157.6 4.2 335 -999
2009-04-02 06:13:01 51°13.805 2°55.664 159.3 4.4 338 -999
2009-04-02 06:13:06 51°13.811 2°55.661 161 4.6 340 -999
2009-04-02 06:13:11 51°13.818 2°55.658 162.9 4.8 342 -999
2009-04-02 06:13:16 51°13.824 2°55.655 164 4.9 343 -999
2009-04-02 06:13:21 51°13.83 2°55.652 164.4 4.9 343 -999
2009-04-02 06:13:26 51°13.837 2°55.649 164.4 4.8 345 -999
2009-04-02 06:13:30 51°13.842 2°55.646 164.3 4.8 343 -999
2009-04-02 06:13:36 51°13.85 2°55.643 164.4 4.8 344 -999
2009-04-02 06:13:41 51°13.856 2°55.64 164.8 4.7 344 -999
2009-04-02 06:13:46 51°13.862 2°55.637 165.9 4.6 344 -999
2009-04-02 06:13:50 51°13.867 2°55.635 167.6 4.6 346 -999
2009-04-02 06:13:55 51°13.873 2°55.632 169 4.4 347 -999
2009-04-02 06:14:01 51°13.88 2°55.63 171.3 4.3 348 -999
2009-04-02 06:14:06 51°13.886 2°55.629 174.2 4.2 351 -999
2009-04-02 06:14:10 51°13.89 2°55.628 176.9 4 352 -999
2009-04-02 06:14:15 51°13.895 2°55.627 179.3 3.9 355 -999
2009-04-02 06:14:21 51°13.902 2°55.627 182.3 3.7 357 -999
2009-04-02 06:14:26 51°13.906 2°55.627 185.7 3.5 -999 -999
2009-04-02 06:14:31 51°13.911 2°55.627 188.7 3.3 1 -999
2009-04-02 06:14:35 51°13.914 2°55.627 190.9 3.2 6 -999
2009-04-02 06:14:41 51°13.919 2°55.628 193.6 3.1 6 -999
2009-04-02 06:14:46 51°13.923 2°55.629 196.1 2.9 10 -999
2009-04-02 06:14:50 51°13.926 2°55.63 198.4 2.8 10 4.6
2009-04-02 06:14:55 51°13.929 2°55.631 200 2.4 13 -999
2009-04-02 06:15:00 51°13.932 2°55.632 201.8 2.2 12 4.8
2009-04-02 06:15:05 51°13.935 2°55.633 203.5 1.8 16 12.7
2009-04-02 06:15:10 51°13.937 2°55.634 205.8 1.4 12 12.5
2009-04-02 06:15:15 51°13.939 2°55.634 208.4 1.1 5 12.6
2009-04-02 06:15:20 51°13.94 2°55.634 211.3 0.7 359 12.5
2009-04-02 06:15:24 51°13.94 2°55.634 214.6 0.4 330 12.5
2009-04-02 06:15:30 51°13.94 2°55.633 218.9 0.5 281 12.5
2009-04-02 06:15:34 51°13.94 2°55.631 223.9 0.7 259 12.5
2009-04-02 06:15:39 51°13.94 2°55.629 229.5 1 261 12.4
2009-04-02 06:15:44 51°13.939 2°55.627 235.5 1.2 258 12.7
2009-04-02 06:15:49 51°13.939 2°55.624 240.1 1.5 263 12.6
2009-04-02 06:15:54 51°13.939 2°55.62 246.9 1.8 261 12.7
2009-04-02 06:15:58 51°13.939 2°55.616 252.6 2.1 269 12.6
2009-04-02 06:16:03 51°13.938 2°55.611 258.9 2.2 270 12.7
2009-04-02 06:16:08 51°13.939 2°55.606 265.2 2.4 276 12.7
2009-04-02 06:16:13 51°13.939 2°55.601 271.5 2.6 279 12.7
2009-04-02 06:16:18 51°13.94 2°55.595 277.5 2.7 287 12.7
2009-04-02 06:16:23 51°13.942 2°55.589 283.6 2.9 291 12.5
2009-04-02 06:16:27 51°13.943 2°55.584 289.7 3 295 12.7
2009-04-02 06:16:32 51°13.945 2°55.578 295.7 3.2 301 12.7
2009-04-02 06:16:37 51°13.948 2°55.572 301.8 3.3 305 12.7
2009-04-02 06:16:42 51°13.951 2°55.567 307.8 3.4 312 12.7
2009-04-02 06:16:46 51°13.954 2°55.562 313.8 3.6 316 12.7
2009-04-02 06:16:52 51°13.958 2°55.555 318.8 3.8 319 12.7
2009-04-02 06:16:57 51°13.962 2°55.55 323.4 3.9 324 12.7
2009-04-02 06:17:02 51°13.967 2°55.545 328 4.2 329 12.7
2009-04-02 06:17:07 51°13.973 2°55.541 331.8 4.2 333 12.7
2009-04-02 06:17:11 51°13.977 2°55.538 334 4.2 333 12.7
2009-04-02 06:17:17 51°13.984 2°55.533 334.7 4.4 334 12.7
2009-04-02 06:17:22 51°13.99 2°55.529 335.1 4.6 334 12.7
2009-04-02 06:17:27 51°13.996 2°55.524 335.2 4.9 333 12.6
2009-04-02 06:17:31 51°14.001 2°55.52 334.9 5.2 334 12.5
2009-04-02 06:17:37 51°14.009 2°55.514 334.4 5.4 333 12.7
2009-04-02 06:17:42 51°14.016 2°55.508 334 5.8 333 12.6
2009-04-02 06:17:47 51°14.024 2°55.502 334 6 333 12.7
2009-04-02 06:17:52 51°14.031 2°55.496 334.2 6.3 333 12.6
2009-04-02 06:17:57 51°14.039 2°55.489 334.4 6.5 332 12.7
2009-04-02 06:18:02 51°14.047 2°55.482 333.9 6.8 332 12.6
2009-04-02 06:18:07 51°14.056 2°55.475 333.2 7 332 12.6
2009-04-02 06:18:12 51°14.065 2°55.467 332.8 7.1 331 12.6
2009-04-02 06:18:17 51°14.073 2°55.459 332.8 7.3 332 12.7
2009-04-02 06:18:22 51°14.082 2°55.451 332.8 7.5 331 12.7
2009-04-02 06:18:26 51°14.09 2°55.445 332.7 7.6 332 12.7
2009-04-02 06:18:32 51°14.101 2°55.434 333.2 7.8 332 12.7
2009-04-02 06:18:37 51°14.111 2°55.426 333.1 7.9 330 12.7
2009-04-02 06:18:42 51°14.12 2°55.417 332.7 8.1 331 12.7
2009-04-02 06:18:46 51°14.128 2°55.41 332.1 8.2 329 12.7
2009-04-02 06:18:52 51°14.14 2°55.398 331.1 8.3 328 12.7
2009-04-02 06:18:57 51°14.15 2°55.389 331.4 8.4 330 12.7
2009-04-02 06:19:02 51°14.16 2°55.38 331.7 8.5 330 12.7
2009-04-02 06:19:07 51°14.171 2°55.37 331.1 8.6 328 12.8
2009-04-02 06:19:12 51°14.181 2°55.36 330.2 8.7 328 12.7
2009-04-02 06:19:17 51°14.191 2°55.349 329.6 8.7 326 12.8
2009-04-02 06:19:22 51°14.201 2°55.338 328.5 8.8 325 12.8
2009-04-02 06:19:26 51°14.209 2°55.329 327.4 8.8 324 12.7
2009-04-02 06:19:32 51°14.22 2°55.315 325.7 8.9 323 12.7
2009-04-02 06:19:37 51°14.23 2°55.302 323.7 9 320 12.8
2009-04-02 06:19:42 51°14.239 2°55.289 321.4 9 318 12.7
2009-04-02 06:19:46 51°14.247 2°55.278 318.7 9.1 315 12.7
2009-04-02 06:19:52 51°14.257 2°55.26 315.8 9.1 313 12.7
2009-04-02 06:19:57 51°14.265 2°55.245 312.6 9.1 310 12.7
2009-04-02 06:20:02 51°14.273 2°55.229 311.3 9.2 310 13
2009-04-02 06:20:06 51°14.279 2°55.216 310.2 9.3 308 12.8
2009-04-02 06:20:12 51°14.289 2°55.196 308.2 9.4 306 13.1
2009-04-02 06:20:17 51°14.296 2°55.179 307.8 9.5 307 12.7
2009-04-02 06:20:22 51°14.304 2°55.162 308.5 9.5 307 12.6
2009-04-02 06:20:26 51°14.31 2°55.149 308.6 9.7 307 12.6
2009-04-02 06:20:32 51°14.32 2°55.128 309.2 9.6 308 12.8
2009-04-02 06:20:37 51°14.328 2°55.111 309.7 9.8 307 12.8
2009-04-02 06:20:42 51°14.337 2°55.094 309.2 9.9 306 12.9
2009-04-02 06:20:46 51°14.343 2°55.08 309.3 9.9 307 12.7
2009-04-02 06:20:52 51°14.353 2°55.059 309.6 9.8 308 12.5
2009-04-02 06:20:57 51°14.362 2°55.042 310.1 9.9 308 12.4
2009-04-02 06:21:02 51°14.37 2°55.024 309.3 10.1 306 12.1
2009-04-02 06:21:06 51°14.376 2°55.01 307.8 10.1 306 12.2
2009-04-02 06:21:12 51°14.386 2°54.987 306.9 10.2 304 12.2
2009-04-02 06:21:17 51°14.393 2°54.968 304.7 10.2 302 12.3
2009-04-02 06:21:22 51°14.401 2°54.949 303.1 10.2 301 12.3
2009-04-02 06:21:27 51°14.408 2°54.929 301.8 10.2 301 12.4
2009-04-02 06:21:32 51°14.415 2°54.909 300.7 10.3 300 12.4
2009-04-02 06:21:37 51°14.422 2°54.889 300.7 10.4 300 12.6
2009-04-02 06:21:42 51°14.43 2°54.869 300.3 10.3 300 12.6
2009-04-02 06:21:46 51°14.435 2°54.854 300 10.3 300 12.6
2009-04-02 06:21:52 51°14.444 2°54.83 299.9 10.4 301 12.6
2009-04-02 06:21:57 51°14.451 2°54.81 299 10.4 299 12.6
2009-04-02 06:22:02 51°14.458 2°54.79 298.8 10.5 301 12.6
2009-04-02 06:22:06 51°14.465 2°54.774 299.5 10.5 302 12.6
2009-04-02 06:22:12 51°14.474 2°54.751 300 10.5 302 12.7
2009-04-02 06:22:17 51°14.481 2°54.731 299.7 10.5 300 12.9
2009-04-02 06:22:22 51°14.489 2°54.711 299.2 10.5 301 12.8
2009-04-02 06:22:26 51°14.494 2°54.695 298.5 10.7 299 12.9
2009-04-02 06:22:32 51°14.503 2°54.67 298.9 10.9 301 12.9
2009-04-02 06:22:37 51°14.511 2°54.649 299.3 10.7 301 12.8
2009-04-02 06:22:42 51°14.519 2°54.629 299.5 11 299 12.5
2009-04-02 06:22:46 51°14.525 2°54.612 298.5 11 300 12.6
2009-04-02 06:22:52 51°14.535 2°54.586 299.6 11.2 303 12.6
2009-04-02 06:22:57 51°14.543 2°54.565 300.1 11.3 300 12.6
2009-04-02 06:23:02 51°14.551 2°54.543 299.9 11.5 302 12.6
2009-04-02 06:23:06 51°14.558 2°54.526 299.8 11.4 301 12.7
2009-04-02 06:23:12 51°14.567 2°54.5 299.5 11.5 300 12.7
2009-04-02 06:23:17 51°14.575 2°54.477 299 11.5 299 12.7
2009-04-02 06:23:22 51°14.583 2°54.455 298.8 11.6 300 12.7
2009-04-02 06:23:26 51°14.589 2°54.437 298.9 11.7 299 12.7
2009-04-02 06:23:32 51°14.6 2°54.411 299.4 11.7 302 12.7
2009-04-02 06:23:37 51°14.607 2°54.389 299.6 11.7 300 12.6
2009-04-02 06:23:42 51°14.616 2°54.366 299.5 11.8 301 12.7
2009-04-02 06:23:46 51°14.622 2°54.348 299.8 11.7 299 12.6
2009-04-02 06:23:52 51°14.632 2°54.321 300.1 11.6 301 12.5
2009-04-02 06:23:57 51°14.64 2°54.299 298.8 11.8 299 12.3
2009-04-02 06:24:02 51°14.648 2°54.276 298.9 11.9 301 12.4
2009-04-02 06:24:06 51°14.655 2°54.258 300 11.8 301 12.5
2009-04-02 06:24:12 51°14.665 2°54.231 300.2 11.8 301 12.5
2009-04-02 06:24:17 51°14.673 2°54.209 299.8 11.8 301 12.3
2009-04-02 06:24:22 51°14.682 2°54.187 299.8 11.8 302 12.5
2009-04-02 06:24:27 51°14.691 2°54.165 300.6 11.9 302 12.4
2009-04-02 06:24:32 51°14.699 2°54.142 300.6 11.9 302 12.5
2009-04-02 06:24:37 51°14.708 2°54.12 300.4 11.9 301 12.4
2009-04-02 06:24:42 51°14.717 2°54.098 300.5 11.9 304 12.4
2009-04-02 06:24:46 51°14.724 2°54.08 301 11.9 303 12.4
2009-04-02 06:24:52 51°14.735 2°54.054 300.7 11.8 303 12.2
2009-04-02 06:24:57 51°14.743 2°54.031 299.8 11.8 301 12.1
2009-04-02 06:25:02 51°14.752 2°54.009 300.3 11.9 305 12.2
2009-04-02 06:25:06 51°14.759 2°53.992 300.6 11.9 301 12
2009-04-02 06:25:12 51°14.77 2°53.966 300.4 11.8 303 11.9
2009-04-02 06:25:17 51°14.778 2°53.944 300.3 11.7 301 11.6
2009-04-02 06:25:22 51°14.787 2°53.922 300.2 11.8 304 11.7
2009-04-02 06:25:27 51°14.796 2°53.9 300.6 11.8 301 11.7
2009-04-02 06:25:32 51°14.805 2°53.878 300.6 11.8 304 11.7
2009-04-02 06:25:37 51°14.812 2°53.855 299.2 11.7 298 11.7
2009-04-02 06:25:42 51°14.82 2°53.833 298.4 11.8 301 11.8
2009-04-02 06:25:47 51°14.829 2°53.81 298.5 11.8 299 11.8
2009-04-02 06:25:52 51°14.836 2°53.787 297.8 11.8 297 11.7
2009-04-02 06:25:57 51°14.844 2°53.764 296.5 11.8 297 11.7
2009-04-02 06:26:02 51°14.851 2°53.741 296.2 11.7 296 11.7
2009-04-02 06:26:07 51°14.858 2°53.717 295.6 11.7 295 11.6
2009-04-02 06:26:12 51°14.865 2°53.694 295.6 11.7 295 11.8
2009-04-02 06:26:17 51°14.871 2°53.671 294.6 11.7 295 11.7
2009-04-02 06:26:22 51°14.879 2°53.648 295.1 11.7 297 11.7
2009-04-02 06:26:27 51°14.885 2°53.624 294.6 11.7 294 11.8
2009-04-02 06:26:32 51°14.892 2°53.6 295 11.7 295 11.8
2009-04-02 06:26:37 51°14.899 2°53.577 294.7 11.7 293 11.8
2009-04-02 06:26:42 51°14.905 2°53.553 292.5 11.7 294 11.6
2009-04-02 06:26:47 51°14.912 2°53.53 293.2 11.7 294 11.7
2009-04-02 06:26:52 51°14.918 2°53.505 293.2 11.8 293 11.7
2009-04-02 06:26:57 51°14.925 2°53.481 293.5 11.8 294 11.8
2009-04-02 06:27:02 51°14.932 2°53.458 294 11.7 294 11.7
2009-04-02 06:27:07 51°14.938 2°53.434 293.3 11.7 293 11.9
2009-04-02 06:27:12 51°14.945 2°53.41 293.3 11.9 295 12
2009-04-02 06:27:17 51°14.952 2°53.386 293.7 11.8 295 11.9
2009-04-02 06:27:22 51°14.959 2°53.363 294 11.8 295 11.9
2009-04-02 06:27:26 51°14.964 2°53.343 293.8 11.9 295 12
2009-04-02 06:27:32 51°14.973 2°53.315 294.3 11.9 296 11.9
2009-04-02 06:27:37 51°14.98 2°53.291 294.4 11.9 295 11.9
2009-04-02 06:27:42 51°14.987 2°53.267 293.8 11.9 296 12
2009-04-02 06:27:46 51°14.992 2°53.248 292.4 11.8 292 11.9
2009-04-02 06:27:52 51°14.999 2°53.219 292.2 11.8 293 11.9
2009-04-02 06:27:57 51°15.006 2°53.195 292.1 11.9 294 11.9
2009-04-02 06:28:02 51°15.012 2°53.171 292.5 11.9 292 11.9
2009-04-02 06:28:06 51°15.017 2°53.152 291.5 11.8 292 12
2009-04-02 06:28:12 51°15.026 2°53.123 292.1 11.9 295 11.8
2009-04-02 06:28:17 51°15.033 2°53.099 293.4 11.8 296 11.7
2009-04-02 06:28:22 51°15.04 2°53.076 294.6 11.8 296 11.8
2009-04-02 06:28:26 51°15.045 2°53.057 294.4 11.9 295 12
2009-04-02 06:28:32 51°15.055 2°53.029 295.2 11.9 298 12.1
2009-04-02 06:28:37 51°15.062 2°53.006 295.3 11.8 297 12
2009-04-02 06:28:42 51°15.069 2°52.983 295.3 11.7 299 11.9
2009-04-02 06:28:46 51°15.076 2°52.965 297.3 11.6 300 12
2009-04-02 06:28:52 51°15.085 2°52.937 296.3 11.7 295 12
2009-04-02 06:28:57 51°15.093 2°52.914 297.1 11.7 301 12.1
2009-04-02 06:29:02 51°15.101 2°52.892 297.1 11.6 298 12.2
2009-04-02 06:29:06 51°15.107 2°52.874 297.3 11.7 299 12.2
2009-04-02 06:29:12 51°15.116 2°52.846 297.2 11.7 298 12.3
2009-04-02 06:29:17 51°15.124 2°52.824 297.3 11.7 300 12.3
2009-04-02 06:29:22 51°15.132 2°52.801 297.6 11.7 298 12.5
2009-04-02 06:29:26 51°15.138 2°52.783 297.6 11.7 299 12.6
2009-04-02 06:29:32 51°15.148 2°52.756 297.6 11.8 300 12.5
2009-04-02 06:29:37 51°15.155 2°52.733 297.7 11.6 297 12.5
2009-04-02 06:29:42 51°15.163 2°52.711 296.9 11.7 298 12.5
2009-04-02 06:29:47 51°15.171 2°52.688 296.9 11.7 298 12.6
2009-04-02 06:29:52 51°15.179 2°52.665 298.4 11.7 299 12.6
2009-04-02 06:29:57 51°15.187 2°52.643 297.8 11.7 300 12.4
2009-04-02 06:30:02 51°15.195 2°52.621 297.5 11.7 300 12.6
2009-04-02 06:30:06 51°15.202 2°52.603 298.9 11.7 301 12.8
2009-04-02 06:30:12 51°15.211 2°52.576 297.9 11.7 299 12.9
2009-04-02 06:30:17 51°15.219 2°52.554 299 11.7 300 12.8
2009-04-02 06:30:22 51°15.227 2°52.531 298.9 11.6 297 13
2009-04-02 06:30:26 51°15.233 2°52.512 296.5 11.6 297 12.8
2009-04-02 06:30:32 51°15.241 2°52.485 295.4 11.6 296 12.8
2009-04-02 06:30:37 51°15.248 2°52.461 294 11.6 294 12.8
2009-04-02 06:30:42 51°15.254 2°52.438 293.3 11.6 293 12.8
2009-04-02 06:30:46 51°15.26 2°52.419 292.7 11.6 293 13
2009-04-02 06:30:52 51°15.267 2°52.39 291.1 11.6 292 12.9
2009-04-02 06:30:57 51°15.273 2°52.367 291.4 11.6 293 13.1
2009-04-02 06:31:02 51°15.279 2°52.343 291.1 11.6 291 13
2009-04-02 06:31:06 51°15.284 2°52.324 291.2 11.6 294 13.1
2009-04-02 06:31:12 51°15.291 2°52.295 291.1 11.6 291 13.1
2009-04-02 06:31:17 51°15.297 2°52.271 291 11.6 292 13.2
2009-04-02 06:31:22 51°15.303 2°52.247 290.4 11.6 292 13.2
2009-04-02 06:31:26 51°15.309 2°52.229 291.1 11.7 294 13.2
2009-04-02 06:31:32 51°15.315 2°52.199 290.6 11.7 290 13.3
2009-04-02 06:31:37 51°15.322 2°52.176 291.5 11.7 293 13.3
2009-04-02 06:31:42 51°15.328 2°52.152 290.9 11.7 291 13.3
2009-04-02 06:31:47 51°15.334 2°52.128 290.8 11.6 293 13.3
2009-04-02 06:31:52 51°15.341 2°52.104 291.4 11.7 293 13.5
2009-04-02 06:31:57 51°15.346 2°52.08 290.4 11.5 291 13.5
2009-04-02 06:32:02 51°15.352 2°52.057 290.2 11.5 291 13.4
2009-04-02 06:32:07 51°15.359 2°52.033 290.1 11.6 293 13.5
2009-04-02 06:32:11 51°15.363 2°52.014 289.7 11.6 291 13.6
2009-04-02 06:32:17 51°15.37 2°51.985 289.9 11.6 291 13.8
2009-04-02 06:32:22 51°15.376 2°51.961 289.1 11.6 290 13.8
2009-04-02 06:32:27 51°15.382 2°51.937 289.4 11.6 293 13.8
2009-04-02 06:32:32 51°15.388 2°51.913 289.9 11.6 291 13.9
2009-04-02 06:32:37 51°15.394 2°51.889 290.7 11.7 292 14
2009-04-02 06:32:42 51°15.4 2°51.865 290.5 11.4 292 13.8
2009-04-02 06:32:47 51°15.406 2°51.842 289.5 11.5 291 13.6
2009-04-02 06:32:52 51°15.41 2°51.817 286.7 11.5 286 13.7
2009-04-02 06:32:57 51°15.416 2°51.794 287.9 11.5 290 13.6
2009-04-02 06:33:02 51°15.42 2°51.77 286.7 11.4 285 13.8
2009-04-02 06:33:06 51°15.424 2°51.75 285.7 11.4 287 13.8
2009-04-02 06:33:12 51°15.429 2°51.721 284.9 11.5 285 14
2009-04-02 06:33:17 51°15.433 2°51.697 284.9 11.4 285 14.1
2009-04-02 06:33:22 51°15.437 2°51.672 284.4 11.6 287 14.1
2009-04-02 06:33:26 51°15.441 2°51.653 285 11.6 286 14.3
2009-04-02 06:33:32 51°15.446 2°51.623 285.3 11.5 284 14.2
2009-04-02 06:33:37 51°15.45 2°51.599 284.6 11.6 286 14.3
2009-04-02 06:33:42 51°15.455 2°51.574 284.8 11.6 286 14.3
2009-04-02 06:33:46 51°15.458 2°51.554 284.6 11.6 286 14.3
2009-04-02 06:33:52 51°15.463 2°51.525 284 11.6 286 14.3
2009-04-02 06:33:57 51°15.468 2°51.5 283.9 11.6 284 14.2
2009-04-02 06:34:02 51°15.472 2°51.476 284 11.5 287 14.3
2009-04-02 06:34:06 51°15.476 2°51.456 284 11.5 285 14.2
2009-04-02 06:34:12 51°15.481 2°51.426 284.5 11.6 286 14.2
2009-04-02 06:34:17 51°15.485 2°51.402 285.3 11.7 286 14.2
2009-04-02 06:34:22 51°15.49 2°51.377 285.3 11.7 287 14.3
2009-04-02 06:34:26 51°15.494 2°51.357 285 11.7 286 14.4
2009-04-02 06:34:32 51°15.499 2°51.327 285 11.8 287 14.5
2009-04-02 06:34:37 51°15.504 2°51.302 284.7 11.8 288 14.6
2009-04-02 06:34:42 51°15.509 2°51.278 285.6 11.7 288 14.6
2009-04-02 06:34:46 51°15.513 2°51.258 285.3 11.7 287 14.4
2009-04-02 06:34:52 51°15.518 2°51.228 284.6 11.7 286 14.4
2009-04-02 06:34:57 51°15.523 2°51.203 285.3 11.7 287 14.4
2009-04-02 06:35:02 51°15.527 2°51.178 285.4 11.7 283 14.4
2009-04-02 06:35:06 51°15.53 2°51.158 283.7 11.7 284 14.5
2009-04-02 06:35:12 51°15.534 2°51.128 281.9 11.7 283 14.5
2009-04-02 06:35:17 51°15.538 2°51.103 281.2 11.8 282 14.6
2009-04-02 06:35:22 51°15.54 2°51.077 279.7 11.8 280 14.6
2009-04-02 06:35:26 51°15.544 2°51.057 280.3 11.8 282 14.6
2009-04-02 06:35:32 51°15.547 2°51.026 279 11.8 279 14.5
2009-04-02 06:35:37 51°15.551 2°51.001 280.6 11.8 285 14.5
2009-04-02 06:35:42 51°15.555 2°50.975 280.6 11.7 282 14.4
2009-04-02 06:35:47 51°15.559 2°50.95 281.6 11.7 286 14.4
2009-04-02 06:35:52 51°15.563 2°50.925 282.7 11.8 287 14.5
2009-04-02 06:35:57 51°15.568 2°50.901 284.9 11.7 287 14.5
2009-04-02 06:36:02 51°15.573 2°50.876 286.1 11.6 288 14.6
2009-04-02 06:36:07 51°15.578 2°50.851 285.7 11.7 287 14.5
2009-04-02 06:36:12 51°15.585 2°50.828 288.4 11.8 293 14.6
2009-04-02 06:36:17 51°15.59 2°50.803 289.3 11.7 289 14.7
2009-04-02 06:36:22 51°15.597 2°50.78 290.4 11.6 294 14.5
2009-04-02 06:36:27 51°15.603 2°50.757 292 11.6 294 14.5
2009-04-02 06:36:32 51°15.61 2°50.733 292.2 11.7 294 14.6
2009-04-02 06:36:37 51°15.617 2°50.709 292.9 11.8 298 14.6
2009-04-02 06:36:42 51°15.624 2°50.686 294.2 11.8 295 14.7
2009-04-02 06:36:47 51°15.631 2°50.662 293.7 11.8 296 14.6
2009-04-02 06:36:51 51°15.638 2°50.644 294.8 11.8 298 14.6
2009-04-02 06:36:57 51°15.646 2°50.616 294.9 11.9 298 14.7
2009-04-02 06:37:02 51°15.654 2°50.592 295 11.9 298 14.7
2009-04-02 06:37:07 51°15.661 2°50.569 294.8 11.9 295 14.7
2009-04-02 06:37:12 51°15.669 2°50.545 294.9 11.9 297 14.5
2009-04-02 06:37:17 51°15.677 2°50.522 295.4 11.9 296 14.6
2009-04-02 06:37:22 51°15.684 2°50.499 295.1 11.9 300 14.5
2009-04-02 06:37:27 51°15.692 2°50.476 296.7 11.9 299 14.7
2009-04-02 06:37:32 51°15.7 2°50.452 296.2 11.8 297 14.6
2009-04-02 06:37:37 51°15.708 2°50.43 296.9 11.9 299 14.7
2009-04-02 06:37:42 51°15.715 2°50.406 296.5 11.9 296 14.7
2009-04-02 06:37:47 51°15.723 2°50.383 295.5 11.9 298 14.7
2009-04-02 06:37:51 51°15.729 2°50.364 294.8 11.9 296 14.7
2009-04-02 06:37:57 51°15.738 2°50.335 294.4 11.9 295 14.7
2009-04-02 06:38:02 51°15.744 2°50.311 293.3 11.9 294 14.7
2009-04-02 06:38:07 51°15.751 2°50.288 292.9 11.8 296 14.7
2009-04-02 06:38:12 51°15.757 2°50.263 291.9 11.8 292 14.7
2009-04-02 06:38:17 51°15.765 2°50.239 291.6 11.9 296 14.7
2009-04-02 06:38:22 51°15.77 2°50.215 291.4 11.7 290 14.7
2009-04-02 06:38:27 51°15.777 2°50.192 290.5 11.7 294 14.5
2009-04-02 06:38:32 51°15.783 2°50.167 289.9 11.7 290 14.3
2009-04-02 06:38:37 51°15.789 2°50.143 289.7 11.7 292 14.2
2009-04-02 06:38:42 51°15.795 2°50.119 288.9 11.7 290 14
2009-04-02 06:38:47 51°15.8 2°50.094 288.7 11.7 290 13.9
2009-04-02 06:38:52 51°15.806 2°50.07 288.6 11.8 290 13.7
2009-04-02 06:38:57 51°15.811 2°50.046 288 11.6 290 13.6
2009-04-02 06:39:02 51°15.816 2°50.021 286.7 11.5 287 13.4
2009-04-02 06:39:07 51°15.821 2°49.997 285.9 11.5 288 13.2
2009-04-02 06:39:11 51°15.825 2°49.978 286.1 11.5 288 13.1
2009-04-02 06:39:17 51°15.831 2°49.948 286.2 11.7 289 13
2009-04-02 06:39:22 51°15.836 2°49.924 285.3 11.5 286 12.9
2009-04-02 06:39:27 51°15.841 2°49.9 285.7 11.5 289 12.8
2009-04-02 06:39:32 51°15.846 2°49.875 285.6 11.7 286 12.7
2009-04-02 06:39:37 51°15.851 2°49.851 285.1 11.6 290 12.6
2009-04-02 06:39:42 51°15.856 2°49.827 285.8 11.5 286 12.5
2009-04-02 06:39:47 51°15.86 2°49.802 285.9 11.4 287 12.4
2009-04-02 06:39:52 51°15.865 2°49.778 284.1 11.5 287 12.4
2009-04-02 06:39:57 51°15.869 2°49.753 284.8 11.5 284 12.3
2009-04-02 06:40:02 51°15.873 2°49.728 283.4 11.5 283 12.2
2009-04-02 06:40:07 51°15.876 2°49.704 282.1 11.5 282 12.2
2009-04-02 06:40:11 51°15.879 2°49.684 280.9 11.5 280 12.1
2009-04-02 06:40:17 51°15.882 2°49.654 280.2 11.5 278 12
2009-04-02 06:40:22 51°15.884 2°49.629 278.9 11.5 280 11.9
2009-04-02 06:40:27 51°15.887 2°49.604 279.2 11.5 279 12.1
2009-04-02 06:40:32 51°15.889 2°49.578 277.6 11.5 277 12.1
2009-04-02 06:40:37 51°15.892 2°49.553 278.3 11.5 279 12.4
2009-04-02 06:40:42 51°15.894 2°49.527 277.7 11.6 276 12.4
2009-04-02 06:40:47 51°15.896 2°49.502 276.4 11.5 278 12.5
2009-04-02 06:40:52 51°15.898 2°49.477 276.6 11.5 275 12.5
2009-04-02 06:40:57 51°15.899 2°49.451 275.2 11.7 277 12.5
2009-04-02 06:41:02 51°15.901 2°49.426 275.7 11.6 278 12.5
2009-04-02 06:41:07 51°15.903 2°49.401 276.2 11.6 275 12.5
2009-04-02 06:41:11 51°15.905 2°49.38 275.6 11.6 278 12.5
2009-04-02 06:41:17 51°15.907 2°49.349 275.9 11.7 277 12.6
2009-04-02 06:41:22 51°15.909 2°49.324 277.2 11.6 278 12.6
2009-04-02 06:41:27 51°15.911 2°49.298 276.4 11.6 277 12.7
2009-04-02 06:41:32 51°15.914 2°49.273 277.1 11.7 279 12.7
2009-04-02 06:41:37 51°15.915 2°49.248 277.2 11.6 277 12.7
2009-04-02 06:41:42 51°15.918 2°49.222 277.5 11.7 278 12.7
2009-04-02 06:41:47 51°15.92 2°49.196 276.5 11.7 277 12.8
2009-04-02 06:41:52 51°15.923 2°49.171 277.2 11.6 280 12.9
2009-04-02 06:41:57 51°15.925 2°49.146 277.5 11.6 276 13
2009-04-02 06:42:02 51°15.927 2°49.12 277 11.6 278 13.1
2009-04-02 06:42:07 51°15.929 2°49.095 276.2 11.6 276 13.1
2009-04-02 06:42:12 51°15.931 2°49.07 275.9 11.6 277 13.1
2009-04-02 06:42:17 51°15.933 2°49.044 275.9 11.6 276 13.2
2009-04-02 06:42:22 51°15.935 2°49.019 276.1 11.6 277 13.3
2009-04-02 06:42:27 51°15.937 2°48.993 276.3 11.7 278 13.4
2009-04-02 06:42:31 51°15.938 2°48.972 275.4 11.6 277 13.6
2009-04-02 06:42:37 51°15.941 2°48.942 275.9 11.6 277 13.6
2009-04-02 06:42:42 51°15.942 2°48.916 275 11.6 276 13.8
2009-04-02 06:42:47 51°15.944 2°48.891 275.8 11.6 277 13.9
2009-04-02 06:42:52 51°15.945 2°48.865 276.6 11.7 276 14
2009-04-02 06:42:57 51°15.948 2°48.84 276.4 11.6 277 14
2009-04-02 06:43:02 51°15.95 2°48.814 276.7 11.7 277 14.1
2009-04-02 06:43:07 51°15.951 2°48.789 276.8 11.6 277 14.2
2009-04-02 06:43:12 51°15.953 2°48.763 277.2 11.6 276 14.2
2009-04-02 06:43:17 51°15.956 2°48.738 276.7 11.7 277 14.2
2009-04-02 06:43:22 51°15.957 2°48.712 276.7 11.7 278 14.4
2009-04-02 06:43:27 51°15.959 2°48.686 277 11.7 276 14.6
2009-04-02 06:43:31 51°15.961 2°48.666 276.7 11.5 280 14.7
2009-04-02 06:43:37 51°15.964 2°48.636 277.6 11.6 274 14.9
2009-04-02 06:43:42 51°15.965 2°48.61 276.2 11.5 278 15.1
2009-04-02 06:43:47 51°15.969 2°48.585 278.6 11.5 281 15.2
2009-04-02 06:43:52 51°15.969 2°48.56 276.9 11.6 275 15.5
2009-04-02 06:43:57 51°15.973 2°48.535 278.2 11.6 280 15.6
2009-04-02 06:44:02 51°15.975 2°48.509 278.2 11.6 277 15.6
2009-04-02 06:44:07 51°15.977 2°48.484 277 11.6 277 15.9
2009-04-02 06:44:12 51°15.979 2°48.458 277.2 11.6 279 15.9
2009-04-02 06:44:17 51°15.982 2°48.433 278.6 11.6 275 15.9
2009-04-02 06:44:22 51°15.984 2°48.407 277.4 11.5 280 16
2009-04-02 06:44:27 51°15.987 2°48.382 277 11.6 278 16.1
2009-04-02 06:44:31 51°15.988 2°48.362 277.9 11.6 278 16.3
2009-04-02 06:44:37 51°15.991 2°48.332 277.8 11.6 279 16.3
2009-04-02 06:44:42 51°15.993 2°48.306 277.7 11.6 277 16.3
2009-04-02 06:44:47 51°15.996 2°48.281 277.5 11.6 278 16.4
2009-04-02 06:44:52 51°15.997 2°48.255 277.1 11.6 277 16.5
2009-04-02 06:44:57 51°16 2°48.23 276.6 11.6 278 16.6
2009-04-02 06:45:02 51°16.002 2°48.204 276.1 11.6 277 16.8
2009-04-02 06:45:07 51°16.003 2°48.179 275.2 11.6 276 16.8
2009-04-02 06:45:12 51°16.005 2°48.153 275.9 11.6 277 16.8
2009-04-02 06:45:17 51°16.008 2°48.128 276 11.6 276 16.9
2009-04-02 06:45:22 51°16.008 2°48.102 274.9 11.7 277 17
2009-04-02 06:45:27 51°16.011 2°48.077 276.3 11.6 277 17
2009-04-02 06:45:32 51°16.013 2°48.051 276 11.6 276 16.9
2009-04-02 06:45:37 51°16.016 2°48.026 276.4 11.7 279 16.9
2009-04-02 06:45:42 51°16.017 2°48 276 11.8 276 16.9
2009-04-02 06:45:47 51°16.02 2°47.974 276.9 11.7 279 17
2009-04-02 06:45:51 51°16.021 2°47.953 276.5 11.8 276 17
2009-04-02 06:45:57 51°16.024 2°47.922 277 11.7 277 16.9
2009-04-02 06:46:02 51°16.026 2°47.897 276.2 11.6 277 16.9
2009-04-02 06:46:07 51°16.027 2°47.871 276.2 11.7 276 17
2009-04-02 06:46:12 51°16.03 2°47.846 276.5 11.6 279 17
2009-04-02 06:46:17 51°16.031 2°47.82 276.3 11.7 275 17.2
2009-04-02 06:46:22 51°16.033 2°47.794 276.2 11.7 278 17.2
2009-04-02 06:46:27 51°16.036 2°47.769 277.3 11.7 278 17.3
2009-04-02 06:46:32 51°16.037 2°47.743 276.7 11.7 277 17.3
2009-04-02 06:46:37 51°16.04 2°47.717 276.8 11.7 279 17.4
2009-04-02 06:46:42 51°16.042 2°47.691 277.9 11.8 278 17.4
2009-04-02 06:46:47 51°16.045 2°47.666 278.1 11.9 280 17.4
2009-04-02 06:46:51 51°16.047 2°47.645 278.1 11.7 277 17.4
2009-04-02 06:46:57 51°16.05 2°47.614 277.9 11.8 278 17.4
2009-04-02 06:47:02 51°16.051 2°47.588 276.6 11.9 278 17.4
2009-04-02 06:47:07 51°16.055 2°47.562 279 11.7 280 17.4
2009-04-02 06:47:12 51°16.057 2°47.536 278 11.8 277 17.3
2009-04-02 06:47:17 51°16.06 2°47.511 277.9 11.7 283 17.4
2009-04-02 06:47:22 51°16.061 2°47.485 277.9 11.7 273 17.4
2009-04-02 06:47:27 51°16.064 2°47.46 277 11.7 281 17.5
2009-04-02 06:47:32 51°16.067 2°47.434 278.3 11.7 278 17.5
2009-04-02 06:47:37 51°16.069 2°47.409 277.6 11.7 282 17.5
2009-04-02 06:47:42 51°16.072 2°47.383 278.7 11.7 278 17.6
2009-04-02 06:47:47 51°16.074 2°47.358 278.3 11.7 280 17.6
2009-04-02 06:47:52 51°16.077 2°47.332 278.1 11.6 280 17.5
2009-04-02 06:47:57 51°16.079 2°47.307 277.9 11.6 276 17.7
2009-04-02 06:48:02 51°16.081 2°47.281 276.3 11.7 279 17.4
2009-04-02 06:48:07 51°16.084 2°47.256 277.4 11.6 279 17.3
2009-04-02 06:48:12 51°16.086 2°47.231 277 11.5 278 17.1
2009-04-02 06:48:17 51°16.088 2°47.205 276.4 11.6 278 17
2009-04-02 06:48:22 51°16.092 2°47.18 278.6 11.6 282 17
2009-04-02 06:48:27 51°16.092 2°47.154 276.4 11.6 273 16.8
2009-04-02 06:48:32 51°16.097 2°47.13 277.7 11.7 287 16.6
2009-04-02 06:48:37 51°16.097 2°47.104 276.3 11.6 271 16.6
2009-04-02 06:48:42 51°16.101 2°47.079 276.7 11.7 286 16.4
2009-04-02 06:48:47 51°16.103 2°47.054 278.1 11.6 276 16.4
2009-04-02 06:48:52 51°16.105 2°47.028 277 11.8 283 16.4
2009-04-02 06:48:57 51°16.109 2°47.003 278.7 11.7 277 16.3
2009-04-02 06:49:02 51°16.111 2°46.977 277.3 11.7 280 15.5
2009-04-02 06:49:07 51°16.114 2°46.952 277.8 11.7 282 15.3
2009-04-02 06:49:11 51°16.115 2°46.931 276.7 11.7 278 15.8
2009-04-02 06:49:17 51°16.119 2°46.901 278 11.7 282 15.4
2009-04-02 06:49:22 51°16.121 2°46.875 278.8 11.5 277 15
2009-04-02 06:49:27 51°16.124 2°46.85 275.9 11.5 276 15.3
2009-04-02 06:49:32 51°16.123 2°46.825 271.5 11.3 271 15.3
2009-04-02 06:49:37 51°16.125 2°46.8 271.5 11.4 268 15.2
2009-04-02 06:49:42 51°16.122 2°46.775 267.5 11.3 270 15.3
2009-04-02 06:49:47 51°16.124 2°46.75 268.2 11.3 271 15.3
2009-04-02 06:49:52 51°16.12 2°46.725 264.1 11.3 258 15.2
2009-04-02 06:49:57 51°16.118 2°46.701 259.7 11.2 264 15.3
2009-04-02 06:50:02 51°16.116 2°46.676 260.2 11.1 258 15.4
2009-04-02 06:50:07 51°16.11 2°46.653 254.6 11.2 249 15.3
2009-04-02 06:50:11 51°16.106 2°46.634 251.2 11.3 256 14.1
2009-04-02 06:50:17 51°16.101 2°46.606 251.2 11.1 248 14.4
2009-04-02 06:50:22 51°16.094 2°46.584 247.8 11.1 244 14.9
2009-04-02 06:50:27 51°16.088 2°46.561 245.6 11.2 250 15.1
2009-04-02 06:50:32 51°16.083 2°46.538 247.2 11.1 247 15.2
2009-04-02 06:50:37 51°16.074 2°46.517 243.2 11.3 241 15.2
2009-04-02 06:50:42 51°16.069 2°46.493 243.7 11.2 251 15.2
2009-04-02 06:50:47 51°16.062 2°46.472 244 11 241 15.2
2009-04-02 06:50:52 51°16.054 2°46.45 240.7 11.2 242 13.5
2009-04-02 06:50:57 51°16.049 2°46.427 244.7 10.9 244 13.9
2009-04-02 06:51:02 51°16.04 2°46.408 240.6 11 238 14.5
2009-04-02 06:51:07 51°16.035 2°46.384 241.6 11.1 248 15
2009-04-02 06:51:12 51°16.026 2°46.364 241.3 11.3 235 15.2
2009-04-02 06:51:17 51°16.018 2°46.342 238.7 11.2 245 15.4
2009-04-02 06:51:22 51°16.012 2°46.32 241.8 11.1 241 15.5
2009-04-02 06:51:27 51°16.003 2°46.299 239.2 11.3 236 15.6
2009-04-02 06:51:31 51°15.997 2°46.281 238.9 11.3 243 15.4
2009-04-02 06:51:37 51°15.988 2°46.256 240.3 11.1 238 15.6
2009-04-02 06:51:42 51°15.979 2°46.235 238 11.5 238 15.4
2009-04-02 06:51:47 51°15.973 2°46.212 241.6 11.3 248 15.6
2009-04-02 06:51:52 51°15.964 2°46.193 239.8 10.9 233 15.6
2009-04-02 06:51:57 51°15.956 2°46.171 236 11.2 243 15.7
2009-04-02 06:52:02 51°15.95 2°46.148 242.5 10.8 244 15.7
2009-04-02 06:52:06 51°15.943 2°46.133 239.8 10.8 236 15.8
2009-04-02 06:52:12 51°15.933 2°46.108 238.2 11.2 238 15.7
2009-04-02 06:52:17 51°15.929 2°46.085 243.6 11 249 15.9
2009-04-02 06:52:22 51°15.92 2°46.065 241.5 10.9 236 15.9
2009-04-02 06:52:26 51°15.916 2°46.047 242.5 11 249 16
2009-04-02 06:52:32 51°15.906 2°46.021 242.3 11.2 239 16
2009-04-02 06:52:37 51°15.902 2°45.998 246.1 10.8 247 16.2
2009-04-02 06:52:42 51°15.893 2°45.978 241.7 11.1 238 16.2
2009-04-02 06:52:47 51°15.888 2°45.954 244.6 11.1 254 16.3
2009-04-02 06:52:52 51°15.881 2°45.933 244.7 10.9 239 16.4
2009-04-02 06:52:57 51°15.874 2°45.911 242.5 11.1 250 16.3
2009-04-02 06:53:02 51°15.869 2°45.888 245.3 11 245 16
2009-04-02 06:53:07 51°15.861 2°45.867 243.9 11.2 240 16.2
2009-04-02 06:53:12 51°15.856 2°45.844 244.2 11.1 251 16.4
2009-04-02 06:53:17 51°15.848 2°45.823 244.5 11.1 240 16.5
2009-04-02 06:53:22 51°15.843 2°45.799 244.5 11.3 251 16.6
2009-04-02 06:53:26 51°15.838 2°45.781 245.8 11.3 245 16.6
2009-04-02 06:53:32 51°15.83 2°45.754 245.2 11.3 246 16.6
2009-04-02 06:53:37 51°15.824 2°45.73 245.4 11.4 247 16.5
2009-04-02 06:53:42 51°15.818 2°45.707 245.7 11.3 244 16.4
2009-04-02 06:53:47 51°15.812 2°45.684 245.4 11.2 250 16.5
2009-04-02 06:53:52 51°15.805 2°45.662 245.8 11.5 243 15.8
2009-04-02 06:53:57 51°15.8 2°45.638 247 11.2 252 14.9
2009-04-02 06:54:02 51°15.793 2°45.616 246.2 11.2 242 15.5
2009-04-02 06:54:06 51°15.789 2°45.597 246.3 11.3 254 16.3
2009-04-02 06:54:12 51°15.782 2°45.57 247.3 11.2 245 16.4
2009-04-02 06:54:17 51°15.775 2°45.547 245.2 11.2 248 15.4
2009-04-02 06:54:22 51°15.771 2°45.523 248.3 11.2 250 15
2009-04-02 06:54:26 51°15.766 2°45.505 247.6 11.2 249 16
2009-04-02 06:54:32 51°15.758 2°45.478 245.7 11.4 244 16.3
2009-04-02 06:54:37 51°15.755 2°45.454 249.1 11.1 256 15.4
2009-04-02 06:54:42 51°15.749 2°45.432 248.6 11 248 15.7
2009-04-02 06:54:46 51°15.745 2°45.413 250.1 11.2 254 15.1
2009-04-02 06:54:52 51°15.742 2°45.383 253.5 11.1 263 14.5
2009-04-02 06:54:57 51°15.738 2°45.36 254.8 11 250 14.9
2009-04-02 06:55:02 51°15.735 2°45.336 254.9 11.2 265 14.6
2009-04-02 06:55:07 51°15.733 2°45.312 258.1 11.2 260 14.2
2009-04-02 06:55:12 51°15.731 2°45.287 259.9 11.1 266 14.2
2009-04-02 06:55:17 51°15.73 2°45.262 262.1 11.4 263 14.6
2009-04-02 06:55:22 51°15.729 2°45.237 262.7 11.4 268 14.7
2009-04-02 06:55:26 51°15.729 2°45.217 265.5 11.4 273 14.8
2009-04-02 06:55:32 51°15.729 2°45.187 266.5 11.3 268 14.7
2009-04-02 06:55:37 51°15.731 2°45.162 269 11.5 279 14.6
2009-04-02 06:55:42 51°15.732 2°45.136 272.2 11.5 272 14.5
2009-04-02 06:55:46 51°15.733 2°45.116 273.7 11.5 280 14.4
2009-04-02 06:55:52 51°15.738 2°45.086 277.6 11.5 282 14.3
2009-04-02 06:55:57 51°15.741 2°45.061 278.8 11.6 287 14.3
2009-04-02 06:56:02 51°15.748 2°45.038 284.3 11.5 290 14.2
2009-04-02 06:56:06 51°15.751 2°45.018 286.1 11.6 290 14.2
2009-04-02 06:56:12 51°15.76 2°44.99 290.3 11.8 298 14.1
2009-04-02 06:56:17 51°15.766 2°44.967 291.2 11.4 295 13.8
2009-04-02 06:56:22 51°15.774 2°44.944 294 11.6 299 13.6
2009-04-02 06:56:26 51°15.781 2°44.926 297.2 11.6 301 13.7
2009-04-02 06:56:32 51°15.79 2°44.899 296.3 11.7 298 13.7
2009-04-02 06:56:37 51°15.798 2°44.877 297.9 11.8 302 13.7
2009-04-02 06:56:42 51°15.807 2°44.855 299.5 11.7 303 13.7
2009-04-02 06:56:46 51°15.814 2°44.837 299.2 11.8 300 13.6
2009-04-02 06:56:52 51°15.826 2°44.812 302 12 309 13.7
2009-04-02 06:56:57 51°15.835 2°44.79 303.1 11.9 303 13.8
2009-04-02 06:57:02 51°15.846 2°44.769 305.2 11.9 311 13.6
2009-04-02 06:57:06 51°15.855 2°44.754 308.8 12 313 13.8
2009-04-02 06:57:12 51°15.867 2°44.729 309.1 11.8 309 13.6
2009-04-02 06:57:17 51°15.879 2°44.711 311.3 12 315 13.7
2009-04-02 06:57:22 51°15.89 2°44.691 312.3 11.9 312 13.5
2009-04-02 06:57:27 51°15.903 2°44.673 313.1 12 316 13.3
2009-04-02 06:57:32 51°15.914 2°44.654 313.6 12.1 314 13.4
2009-04-02 06:57:37 51°15.927 2°44.636 314.6 12 318 13.3
2009-04-02 06:57:42 51°15.939 2°44.618 315.1 12 317 13.1
2009-04-02 06:57:46 51°15.948 2°44.603 315.7 12.2 318 13
2009-04-02 06:57:52 51°15.963 2°44.581 316.2 11.9 315 12.6
2009-04-02 06:57:57 51°15.975 2°44.563 315.8 12 317 12.6
2009-04-02 06:58:02 51°15.987 2°44.545 316.4 11.7 317 12.3
2009-04-02 06:58:06 51°15.997 2°44.531 315.7 11.8 317 12.3
2009-04-02 06:58:12 51°16.011 2°44.509 315.8 12 317 12.3
2009-04-02 06:58:17 51°16.023 2°44.491 316 12 316 12.4
2009-04-02 06:58:22 51°16.036 2°44.473 315.6 12.1 317 12.3
2009-04-02 06:58:26 51°16.045 2°44.458 315.4 12.1 316 12.3
2009-04-02 06:58:32 51°16.06 2°44.436 315.7 12.1 316 12.2
2009-04-02 06:58:37 51°16.072 2°44.417 315.5 12 317 12.3
2009-04-02 06:58:42 51°16.085 2°44.4 315.4 12 316 12.4
2009-04-02 06:58:46 51°16.094 2°44.384 315.7 12.1 319 12.4
2009-04-02 06:58:52 51°16.11 2°44.364 317.3 12.2 320 12.5
2009-04-02 06:58:57 51°16.121 2°44.345 316.9 12.2 318 12.6
2009-04-02 06:59:02 51°16.134 2°44.328 318.1 11.9 319 12.5
2009-04-02 06:59:06 51°16.144 2°44.314 317.4 11.9 318 12.3
2009-04-02 06:59:12 51°16.159 2°44.292 317.3 11.8 319 12.3
2009-04-02 06:59:17 51°16.171 2°44.275 317.9 12 319 12.4
2009-04-02 06:59:22 51°16.184 2°44.258 318.1 11.8 319 12.7
2009-04-02 06:59:27 51°16.196 2°44.241 318.4 11.8 320 12.8
2009-04-02 06:59:32 51°16.208 2°44.223 317.2 11.9 317 13
2009-04-02 06:59:37 51°16.221 2°44.206 318 12 320 13.2
2009-04-02 06:59:42 51°16.233 2°44.188 317.8 11.9 318 13.1
2009-04-02 06:59:46 51°16.244 2°44.174 317.3 12 319 13.2
2009-04-02 06:59:52 51°16.259 2°44.153 317.2 12 318 13.3
2009-04-02 06:59:57 51°16.271 2°44.136 317.6 12 319 13.6
2009-04-02 07:00:02 51°16.283 2°44.117 316.9 12.1 317 13.6
2009-04-02 07:00:06 51°16.293 2°44.103 317.4 12.1 319 13.8
2009-04-02 07:00:12 51°16.308 2°44.082 317.3 11.8 317 13.7
2009-04-02 07:00:17 51°16.32 2°44.064 316.5 11.8 319 14
2009-04-02 07:00:22 51°16.333 2°44.047 317.9 12 320 14.1
2009-04-02 07:00:27 51°16.345 2°44.029 318.2 12.1 318 14.5
2009-04-02 07:00:32 51°16.358 2°44.012 318.2 12.1 319 14.7
2009-04-02 07:00:37 51°16.371 2°43.995 318.4 12.1 319 14.9
2009-04-02 07:00:42 51°16.384 2°43.978 318.7 12.1 320 15
2009-04-02 07:00:47 51°16.396 2°43.959 317.8 12.2 317 15.2
2009-04-02 07:00:52 51°16.408 2°43.942 317.5 12.1 319 15.3
2009-04-02 07:00:57 51°16.421 2°43.924 317.5 12.1 317 15.3
2009-04-02 07:01:02 51°16.433 2°43.906 317.1 12.2 319 15.3
2009-04-02 07:01:06 51°16.443 2°43.892 317.3 12.1 318 15.4
2009-04-02 07:01:12 51°16.458 2°43.869 317.1 12.1 315 15.5
2009-04-02 07:01:17 51°16.47 2°43.852 317.3 11.9 317 15.2
2009-04-02 07:01:22 51°16.481 2°43.832 315.8 12 315 15.3
2009-04-02 07:01:27 51°16.494 2°43.816 317.3 11.9 320 15.6
2009-04-02 07:01:32 51°16.506 2°43.797 317.5 11.9 316 15.6
2009-04-02 07:01:37 51°16.518 2°43.779 316.9 12 318 15.8
2009-04-02 07:01:42 51°16.53 2°43.76 317.2 12.1 315 15.9
2009-04-02 07:01:47 51°16.542 2°43.742 316.8 12.1 317 16.1
2009-04-02 07:01:52 51°16.554 2°43.723 317.1 11.9 315 15.9
2009-04-02 07:01:57 51°16.566 2°43.705 316.6 12 317 15.9
2009-04-02 07:02:02 51°16.578 2°43.688 317.4 12 317 15.9
2009-04-02 07:02:06 51°16.588 2°43.672 316.9 12 316 15.8
2009-04-02 07:02:12 51°16.602 2°43.65 316.5 12.1 316 15.8
2009-04-02 07:02:17 51°16.614 2°43.631 316.5 12.1 316 15.9
2009-04-02 07:02:22 51°16.626 2°43.613 316.5 11.9 317 15.8
2009-04-02 07:02:26 51°16.636 2°43.598 316.8 11.8 316 15.4
2009-04-02 07:02:32 51°16.65 2°43.577 317 11.9 315 15.5
2009-04-02 07:02:37 51°16.662 2°43.558 316.6 11.9 317 15.6
2009-04-02 07:02:42 51°16.675 2°43.541 317.1 11.9 317 15.8
2009-04-02 07:02:47 51°16.687 2°43.522 317.4 12 317 15.9
2009-04-02 07:02:52 51°16.699 2°43.504 317.8 11.9 317 15.8
2009-04-02 07:02:57 51°16.711 2°43.487 318 11.9 317 15.7
2009-04-02 07:03:02 51°16.724 2°43.468 317.2 11.9 318 15.8
2009-04-02 07:03:06 51°16.733 2°43.454 317.4 11.9 317 15.6
2009-04-02 07:03:12 51°16.747 2°43.432 317.3 11.9 316 15.5
2009-04-02 07:03:17 51°16.76 2°43.414 317.2 12 318 15.5
2009-04-02 07:03:22 51°16.772 2°43.396 317.5 11.9 316 15.2
2009-04-02 07:03:26 51°16.781 2°43.381 317.5 11.8 317 14.7
2009-04-02 07:03:32 51°16.795 2°43.36 317.3 11.9 315 14.6
2009-04-02 07:03:37 51°16.807 2°43.341 316.9 11.8 317 14.5
2009-04-02 07:03:42 51°16.819 2°43.324 317.9 11.7 317 14.5
2009-04-02 07:03:47 51°16.831 2°43.305 316.5 11.9 314 14.6
2009-04-02 07:03:52 51°16.843 2°43.288 316.6 11.8 319 14.5
2009-04-02 07:03:57 51°16.855 2°43.269 316.8 12 316 14.7
2009-04-02 07:04:02 51°16.867 2°43.251 316.5 12 317 14.6
2009-04-02 07:04:06 51°16.876 2°43.236 316.7 12 315 14.6
2009-04-02 07:04:12 51°16.891 2°43.214 316.4 12 317 14.5
2009-04-02 07:04:17 51°16.903 2°43.195 316.2 12 314 14.2
2009-04-02 07:04:22 51°16.914 2°43.176 316.1 12.1 315 13.9
2009-04-02 07:04:26 51°16.924 2°43.161 315.7 12 313 13.5
2009-04-02 07:04:32 51°16.938 2°43.138 315.8 12.1 314 12.7
2009-04-02 07:04:37 51°16.95 2°43.119 315.3 11.9 314 13.3
2009-04-02 07:04:42 51°16.962 2°43.102 315.8 11.9 315 14.5
2009-04-02 07:04:47 51°16.973 2°43.083 316.2 12 314 15.1
2009-04-02 07:04:52 51°16.985 2°43.064 316 12 315 15.2
2009-04-02 07:04:57 51°16.997 2°43.045 316.5 12 316 14.8
2009-04-02 07:05:02 51°17.008 2°43.026 316.5 12.1 312 14.8
2009-04-02 07:05:07 51°17.02 2°43.007 315.9 12 316 14.4
2009-04-02 07:05:12 51°17.032 2°42.988 316.2 11.8 315 13.9
2009-04-02 07:05:17 51°17.043 2°42.969 315.3 11.9 315 13.4
2009-04-02 07:05:22 51°17.055 2°42.951 316 12 315 12.9
2009-04-02 07:05:26 51°17.064 2°42.935 315.3 12 314 12.2
2009-04-02 07:05:32 51°17.077 2°42.912 315.9 11.9 315 11.5
2009-04-02 07:05:37 51°17.089 2°42.893 315.7 12 311 11.3
2009-04-02 07:05:42 51°17.1 2°42.873 314.2 12 315 11.9
2009-04-02 07:05:46 51°17.11 2°42.858 314 12 311 11.4
2009-04-02 07:05:52 51°17.123 2°42.835 314 12 314 11.3
2009-04-02 07:05:57 51°17.134 2°42.815 313.9 12 313 11.1
2009-04-02 07:06:02 51°17.146 2°42.796 314.6 12 314 10.5
2009-04-02 07:06:06 51°17.155 2°42.78 314.6 12 314 9.6
2009-04-02 07:06:12 51°17.169 2°42.757 314.9 12 314 11.7
2009-04-02 07:06:17 51°17.181 2°42.738 314.7 12.1 314 12.3
2009-04-02 07:06:22 51°17.192 2°42.718 314.3 12.2 313 12
2009-04-02 07:06:26 51°17.201 2°42.702 314.1 12.3 312 11.5
2009-04-02 07:06:32 51°17.215 2°42.679 313.8 12.3 314 10.6
2009-04-02 07:06:37 51°17.226 2°42.659 313.6 12.1 314 11.7
2009-04-02 07:06:42 51°17.238 2°42.639 314.1 12.2 311 11.9
2009-04-02 07:06:46 51°17.247 2°42.623 313.8 12.2 313 11.8
2009-04-02 07:06:52 51°17.261 2°42.599 314.3 12.3 313 12.2
2009-04-02 07:06:57 51°17.273 2°42.58 315 12.2 313 12.7
2009-04-02 07:07:02 51°17.284 2°42.56 313.3 12.2 313 13.6
2009-04-02 07:07:07 51°17.296 2°42.541 314.3 12.2 314 14.5
2009-04-02 07:07:12 51°17.307 2°42.52 314.4 12.3 312 15.6
2009-04-02 07:07:17 51°17.319 2°42.501 314.1 12.3 316 17.2
2009-04-02 07:07:22 51°17.331 2°42.481 314.4 12.4 312 19.2
2009-04-02 07:07:26 51°17.34 2°42.465 313.9 12.4 314 20.7
2009-04-02 07:07:32 51°17.355 2°42.441 313.9 12.4 312 21.4
2009-04-02 07:07:37 51°17.367 2°42.422 313.5 12.3 315 21.8
2009-04-02 07:07:42 51°17.379 2°42.402 314 12.4 313 22.1
2009-04-02 07:07:46 51°17.388 2°42.386 314.4 12.4 313 22.7
2009-04-02 07:07:52 51°17.402 2°42.363 314.4 12.4 315 22.8
2009-04-02 07:07:57 51°17.414 2°42.343 314.2 12.3 314 23.1
2009-04-02 07:08:02 51°17.426 2°42.323 314.3 12.2 316 23.3
2009-04-02 07:08:06 51°17.436 2°42.308 315.5 12.3 315 23.6
2009-04-02 07:08:12 51°17.449 2°42.284 314.4 12.4 314 24
2009-04-02 07:08:17 51°17.462 2°42.265 314.7 12.4 314 24.2
2009-04-02 07:08:22 51°17.474 2°42.245 314.4 12.4 315 24.3
2009-04-02 07:08:26 51°17.483 2°42.229 313.6 12.4 314 24.7
2009-04-02 07:08:32 51°17.498 2°42.205 314.6 12.4 314 24.7
2009-04-02 07:08:37 51°17.509 2°42.186 313.6 12.4 314 24.5
2009-04-02 07:08:42 51°17.522 2°42.166 313.3 12.5 314 24.6
2009-04-02 07:08:46 51°17.531 2°42.15 313.6 12.5 314 24.8
2009-04-02 07:08:52 51°17.545 2°42.126 313.6 12.4 313 24.8
2009-04-02 07:08:57 51°17.557 2°42.106 313.5 12.4 314 24.9
2009-04-02 07:09:02 51°17.569 2°42.086 313.4 12.3 314 24.9
2009-04-02 07:09:06 51°17.578 2°42.07 313.5 12.3 315 24.9
2009-04-02 07:09:12 51°17.592 2°42.046 314.3 12.2 311 24.8
2009-04-02 07:09:17 51°17.605 2°42.028 314 12.2 316 25
2009-04-02 07:09:22 51°17.616 2°42.007 313.3 12.4 312 25
2009-04-02 07:09:27 51°17.628 2°41.987 313.6 12.3 314 25.4
2009-04-02 07:09:32 51°17.639 2°41.967 314.1 12.1 314 25.1
2009-04-02 07:09:37 51°17.651 2°41.948 313.6 12.2 314 25.2
2009-04-02 07:09:42 51°17.663 2°41.929 313.9 12.3 316 25.2
2009-04-02 07:09:46 51°17.673 2°41.913 314 12.3 314 25.2
2009-04-02 07:09:52 51°17.687 2°41.89 314.4 12.2 314 25.2
2009-04-02 07:09:57 51°17.699 2°41.872 314.4 12.4 314 25.2
2009-04-02 07:10:02 51°17.711 2°41.852 314.4 12.4 316 25.3
2009-04-02 07:10:06 51°17.721 2°41.837 314.4 12.3 314 25.2
2009-04-02 07:10:12 51°17.736 2°41.814 314.3 12.4 316 25.4
2009-04-02 07:10:17 51°17.747 2°41.794 313.9 12.4 315 25.5
2009-04-02 07:10:22 51°17.76 2°41.775 315.1 12.5 315 25.2
2009-04-02 07:10:27 51°17.772 2°41.756 313.8 12.4 315 25.1
2009-04-02 07:10:32 51°17.784 2°41.736 314.2 12.4 315 25.2
2009-04-02 07:10:37 51°17.796 2°41.717 314.6 12.4 313 25.1
2009-04-02 07:10:42 51°17.809 2°41.698 314 12.4 318 25
2009-04-02 07:10:46 51°17.818 2°41.682 314.1 12.4 313 24.9
2009-04-02 07:10:52 51°17.833 2°41.659 314.1 12.2 316 24.8
2009-04-02 07:10:57 51°17.845 2°41.641 314.8 12.2 317 24.7
2009-04-02 07:11:02 51°17.857 2°41.621 314.3 12.1 315 24.7
2009-04-02 07:11:06 51°17.867 2°41.607 314.7 12.2 317 24.7
2009-04-02 07:11:12 51°17.881 2°41.583 315.1 12.2 313 24.7
2009-04-02 07:11:17 51°17.893 2°41.565 315 12.2 318 24.6
2009-04-02 07:11:22 51°17.905 2°41.546 314.7 12.1 314 24.5
2009-04-02 07:11:27 51°17.917 2°41.528 315.1 12.2 316 24.5
2009-04-02 07:11:32 51°17.929 2°41.508 314.4 12.3 314 24.5
2009-04-02 07:11:37 51°17.941 2°41.489 314.4 12.2 316 24.4
2009-04-02 07:11:42 51°17.953 2°41.469 314.4 12.1 314 24.4
2009-04-02 07:11:46 51°17.962 2°41.454 314.4 12.2 314 24.2
2009-04-02 07:11:52 51°17.976 2°41.431 313.9 12.2 314 24.2
2009-04-02 07:11:57 51°17.988 2°41.411 314.1 12.2 314 23.7
2009-04-02 07:12:02 51°17.999 2°41.392 313.6 12 314 23.8
2009-04-02 07:12:06 51°18.009 2°41.376 313.9 12 313 22.9
2009-04-02 07:12:12 51°18.022 2°41.353 313.7 12 313 22.2
2009-04-02 07:12:17 51°18.034 2°41.334 313.3 11.9 313 21.2
2009-04-02 07:12:22 51°18.045 2°41.315 314.2 12 314 21.8
2009-04-02 07:12:26 51°18.054 2°41.299 312.9 11.9 313 22.4
2009-04-02 07:12:32 51°18.068 2°41.277 315 11.8 316 22.4
2009-04-02 07:12:37 51°18.079 2°41.258 313.8 11.8 312 22.6
2009-04-02 07:12:42 51°18.091 2°41.239 314.2 11.8 315 22.5
2009-04-02 07:12:47 51°18.102 2°41.22 314.1 11.8 313 21.8
2009-04-02 07:12:52 51°18.114 2°41.202 314.4 11.9 315 21.5
2009-04-02 07:12:57 51°18.125 2°41.182 314.2 11.9 313 21.2
2009-04-02 07:13:02 51°18.137 2°41.163 314.2 11.9 313 20.7
2009-04-02 07:13:06 51°18.145 2°41.148 313.8 11.9 312 20.5
2009-04-02 07:13:12 51°18.158 2°41.124 313.6 11.8 313 20.3
2009-04-02 07:13:17 51°18.17 2°41.106 314.1 11.8 313 19.9
2009-04-02 07:13:22 51°18.181 2°41.087 313.9 11.8 314 19.8
2009-04-02 07:13:26 51°18.19 2°41.071 313 11.8 311 19.1
2009-04-02 07:13:32 51°18.203 2°41.048 312.6 11.9 312 18
2009-04-02 07:13:37 51°18.215 2°41.029 313.6 12 310 18.9
2009-04-02 07:13:42 51°18.225 2°41.008 310.7 12 313 19.3
2009-04-02 07:13:46 51°18.235 2°40.994 312.9 12.1 315 19.3
2009-04-02 07:13:52 51°18.248 2°40.969 312.4 12 310 19.3
2009-04-02 07:13:57 51°18.26 2°40.95 312.2 12 314 17.1
2009-04-02 07:14:02 51°18.271 2°40.93 312.2 12 310 17.9
2009-04-02 07:14:06 51°18.279 2°40.914 311.3 12 314 18.1
2009-04-02 07:14:12 51°18.293 2°40.891 312.7 12 313 18
2009-04-02 07:14:17 51°18.304 2°40.871 311.9 12 312 17.3
2009-04-02 07:14:22 51°18.316 2°40.852 312.9 11.9 313 15.6
2009-04-02 07:14:27 51°18.326 2°40.832 312.2 12 310 14.7
2009-04-02 07:14:32 51°18.338 2°40.814 312.5 12 316 16.3
2009-04-02 07:14:37 51°18.349 2°40.793 312 11.9 311 17.7
2009-04-02 07:14:42 51°18.361 2°40.774 312.8 12 313 19.6
2009-04-02 07:14:46 51°18.37 2°40.759 312.9 12.1 314 20.5
2009-04-02 07:14:52 51°18.383 2°40.735 311.6 12 311 20.6
2009-04-02 07:14:57 51°18.395 2°40.716 312.7 12.2 316 20.4
2009-04-02 07:15:02 51°18.406 2°40.695 312.3 12.2 310 20.5
2009-04-02 07:15:06 51°18.415 2°40.681 313 12.1 315 20.7
2009-04-02 07:15:12 51°18.429 2°40.657 313.4 12 311 20.1
2009-04-02 07:15:17 51°18.441 2°40.638 312.9 12 316 17
2009-04-02 07:15:22 51°18.452 2°40.618 312.2 11.9 311 12.8
2009-04-02 07:15:26 51°18.462 2°40.604 313 12 317 16
2009-04-02 07:15:32 51°18.475 2°40.581 312.6 12 311 18
2009-04-02 07:15:37 51°18.487 2°40.562 312.4 12.1 314 19.3
2009-04-02 07:15:42 51°18.498 2°40.542 311.6 12 314 19.5
2009-04-02 07:15:46 51°18.508 2°40.527 312.7 12.1 315 18.9
2009-04-02 07:15:52 51°18.521 2°40.503 312 12.1 311 17.5
2009-04-02 07:15:57 51°18.533 2°40.484 311.6 12.1 317 14.1
2009-04-02 07:16:02 51°18.544 2°40.465 312.5 12 310 14
2009-04-02 07:16:06 51°18.553 2°40.449 311.6 11.9 314 14.8
2009-04-02 07:16:12 51°18.567 2°40.426 311.8 11.8 313 14.2
2009-04-02 07:16:17 51°18.577 2°40.406 310.7 11.8 311 12.7
2009-04-02 07:16:22 51°18.588 2°40.387 310.6 11.6 315 15.7
2009-04-02 07:16:26 51°18.597 2°40.373 310.5 11.6 311 18.9
2009-04-02 07:16:32 51°18.609 2°40.349 309.6 11.7 310 20.9
2009-04-02 07:16:37 51°18.621 2°40.33 310 12 315 22.1
2009-04-02 07:16:42 51°18.631 2°40.31 310.4 12 309 22.7
2009-04-02 07:16:46 51°18.64 2°40.294 310.1 12 312 23.1
2009-04-02 07:16:52 51°18.654 2°40.271 310.2 12 313 23.5
2009-04-02 07:16:57 51°18.664 2°40.25 309.1 11.9 309 23.4
2009-04-02 07:17:02 51°18.676 2°40.231 309.8 12.1 316 24
2009-04-02 07:17:06 51°18.684 2°40.214 309.3 12 305 24.3
2009-04-02 07:17:12 51°18.698 2°40.191 309.9 12 315 24.5
2009-04-02 07:17:17 51°18.708 2°40.17 309.5 12 307 25.2
2009-04-02 07:17:22 51°18.719 2°40.15 308.8 12 313 25.3
2009-04-02 07:17:27 51°18.73 2°40.13 309.1 12 308 25.1
2009-04-02 07:17:32 51°18.741 2°40.11 308.9 11.9 312 24.6
2009-04-02 07:17:37 51°18.751 2°40.09 308.6 12 309 24.9
2009-04-02 07:17:42 51°18.762 2°40.07 308.9 12 312 25
2009-04-02 07:17:46 51°18.771 2°40.054 309.3 12 310 25
2009-04-02 07:17:52 51°18.783 2°40.028 308.4 12.1 311 24.9
2009-04-02 07:17:57 51°18.794 2°40.008 307.8 11.9 311 25.3
2009-04-02 07:18:02 51°18.805 2°39.988 309 12 310 24.9
2009-04-02 07:18:06 51°18.813 2°39.971 308.2 11.9 310 24.9
2009-04-02 07:18:12 51°18.826 2°39.948 308.8 12 310 24.5
2009-04-02 07:18:17 51°18.837 2°39.927 308.5 11.9 310 24.8
2009-04-02 07:18:22 51°18.847 2°39.907 308.7 12 312 24.7
2009-04-02 07:18:26 51°18.856 2°39.891 309.6 12.1 309 24.6
2009-04-02 07:18:32 51°18.869 2°39.866 308.6 12.1 310 24.9
2009-04-02 07:18:37 51°18.88 2°39.846 309.5 12.1 310 24.9
2009-04-02 07:18:42 51°18.891 2°39.825 309.2 12.2 312 25
2009-04-02 07:18:46 51°18.9 2°39.809 309.1 12.2 311 25
2009-04-02 07:18:52 51°18.913 2°39.785 309.4 12.1 309 25
2009-04-02 07:18:57 51°18.924 2°39.764 309.3 12.1 310 24.9
2009-04-02 07:19:02 51°18.935 2°39.744 309.1 12.2 309 24.8
2009-04-02 07:19:06 51°18.943 2°39.727 308.3 12.2 312 25.1
2009-04-02 07:19:12 51°18.957 2°39.703 309.9 12.1 311 25.2
2009-04-02 07:19:17 51°18.968 2°39.682 308.9 12.2 309 25.3
2009-04-02 07:19:22 51°18.979 2°39.661 308.6 12.3 312 25.4
2009-04-02 07:19:26 51°18.988 2°39.645 310 12.2 310 25.5
2009-04-02 07:19:32 51°19.001 2°39.62 309.2 12.3 310 25.6
2009-04-02 07:19:37 51°19.013 2°39.6 310 12.4 311 25.8
2009-04-02 07:19:42 51°19.024 2°39.579 309.8 12.2 311 26
2009-04-02 07:19:46 51°19.033 2°39.563 308.6 12.3 310 26.1
2009-04-02 07:19:52 51°19.046 2°39.538 308.6 12.1 311 26.2
2009-04-02 07:19:57 51°19.057 2°39.518 308.2 12.2 310 26.4
2009-04-02 07:20:02 51°19.068 2°39.497 308.2 12.2 310 26.7
2009-04-02 07:20:06 51°19.076 2°39.481 309.2 12.1 310 26.8
2009-04-02 07:20:12 51°19.089 2°39.456 309.1 12.2 309 27
2009-04-02 07:20:17 51°19.1 2°39.435 309.2 12.1 313 27.1
2009-04-02 07:20:22 51°19.111 2°39.415 309.4 12.2 309 27.4
2009-04-02 07:20:26 51°19.119 2°39.398 308.7 12.2 309 27.7
2009-04-02 07:20:32 51°19.134 2°39.374 309.8 12.2 312 28
2009-04-02 07:20:37 51°19.144 2°39.353 308.9 12.1 309 28.2
2009-04-02 07:20:42 51°19.155 2°39.333 308.5 12.2 310 28.4
2009-04-02 07:20:46 51°19.164 2°39.316 309.1 12.2 309 28.7
2009-04-02 07:20:52 51°19.177 2°39.291 308.8 12.2 311 28.8
2009-04-02 07:20:57 51°19.187 2°39.271 309 12.1 311 28.9
2009-04-02 07:21:02 51°19.198 2°39.251 309.3 12.3 310 29.2
2009-04-02 07:21:06 51°19.207 2°39.234 309.1 12.3 311 29.3
2009-04-02 07:21:12 51°19.22 2°39.209 309.4 12.3 310 29.5
2009-04-02 07:21:17 51°19.231 2°39.188 308.8 12.3 311 29.3
2009-04-02 07:21:22 51°19.242 2°39.167 308.6 12.3 311 29.4
2009-04-02 07:21:26 51°19.251 2°39.15 308 12 305 29.2
2009-04-02 07:21:32 51°19.264 2°39.126 306.8 12 311 29.1
2009-04-02 07:21:37 51°19.273 2°39.104 305.9 12 304 29.2
2009-04-02 07:21:42 51°19.284 2°39.083 305.6 12.1 309 29.4
2009-04-02 07:21:46 51°19.292 2°39.066 305.4 12 307 29.3
2009-04-02 07:21:52 51°19.304 2°39.04 305.4 12.1 306 29.3
2009-04-02 07:21:57 51°19.314 2°39.019 304.5 12.1 309 29.6
2009-04-02 07:22:02 51°19.324 2°38.998 306 12 305 29.4
2009-04-02 07:22:06 51°19.332 2°38.98 305.5 12 308 29.7